createdAt,value
2023-03-16T00:02:20.486Z,99925.65
2023-03-16T00:04:49.091Z,99922.98
2023-03-16T00:07:18.115Z,99913.89
2023-03-16T00:09:46.830Z,99910.38
2023-03-16T00:12:18.943Z,99916.38
2023-03-16T00:14:49.643Z,99920.42
2023-03-16T00:17:21.012Z,99928.26
2023-03-16T00:19:55.432Z,99925.02
2023-03-16T00:22:29.639Z,99935.16
2023-03-16T00:24:58.626Z,99938.65
2023-03-16T00:27:27.848Z,99942.48
2023-03-16T00:29:57.251Z,99945.67
2023-03-16T00:32:32.964Z,99948.45
2023-03-16T00:35:03.112Z,99950.35
2023-03-16T00:37:37.057Z,99950.20
2023-03-16T00:40:08.076Z,99948.41
2023-03-16T00:42:36.512Z,99952.68
2023-03-16T00:45:06.164Z,99951.62
2023-03-16T00:47:36.463Z,99954.48
2023-03-16T00:50:05.495Z,99963.16
2023-03-16T00:52:35.590Z,99959.73
2023-03-16T00:55:04.989Z,99963.67
2023-03-16T00:57:33.459Z,99956.54
2023-03-16T01:00:10.789Z,99954.37
2023-03-16T01:02:39.427Z,99958.16
2023-03-16T01:05:09.466Z,99955.25
2023-03-16T01:07:38.173Z,99955.67
2023-03-16T01:10:08.202Z,99954.94
2023-03-16T01:12:36.702Z,99960.98
2023-03-16T01:15:07.186Z,99965.34
2023-03-16T01:17:35.960Z,99965.95
2023-03-16T01:20:08.391Z,99974.36
2023-03-16T01:22:36.909Z,99978.88
2023-03-16T01:25:06.101Z,99982.09
2023-03-16T01:27:34.568Z,99979.17
2023-03-16T01:30:03.647Z,99979.83
2023-03-16T01:32:33.002Z,99973.03
2023-03-16T01:35:02.001Z,99980.85
2023-03-16T01:37:30.630Z,99976.52
2023-03-16T01:40:12.759Z,99974.40
2023-03-16T01:43:04.561Z,99976.33
2023-03-16T01:46:07.482Z,99972.59
2023-03-16T01:48:52.855Z,99967.78
2023-03-16T01:51:47.089Z,99970.73
2023-03-16T01:54:51.367Z,99972.25
2023-03-16T01:57:29.284Z,99971.89
2023-03-16T02:00:11.119Z,99970.86
2023-03-16T02:02:55.393Z,99966.42
2023-03-16T02:05:44.531Z,99975.13
2023-03-16T02:08:18.791Z,99985.17
2023-03-16T02:10:47.484Z,99987.01
2023-03-16T02:13:16.016Z,99987.91
2023-03-16T02:15:46.220Z,99991.23
2023-03-16T02:18:15.312Z,99992.48
2023-03-16T02:21:16.465Z,100001.98
2023-03-16T02:23:46.248Z,100007.52
2023-03-16T02:26:34.614Z,100002.91
2023-03-16T02:30:05.065Z,100005.84
2023-03-16T02:32:40.008Z,99997.78
2023-03-16T02:35:10.709Z,99993.75
2023-03-16T02:37:41.960Z,99993.80
2023-03-16T02:40:30.644Z,100000.73
2023-03-16T02:43:07.304Z,100008.33
2023-03-16T02:45:55.508Z,100008.46
2023-03-16T02:48:37.890Z,100006.47
2023-03-16T02:51:07.385Z,100004.48
2023-03-16T02:53:35.902Z,100005.09
2023-03-16T02:56:05.008Z,100001.56
2023-03-16T02:58:35.472Z,100007.05
2023-03-16T03:01:06.634Z,100001.14
2023-03-16T03:03:35.777Z,100005.91
2023-03-16T03:06:04.668Z,100011.88
2023-03-16T03:08:37.305Z,100011.15
2023-03-16T03:11:06.112Z,100012.94
2023-03-16T03:13:35.448Z,100017.55
2023-03-16T03:16:04.745Z,100020.34
2023-03-16T03:18:34.826Z,100020.29
2023-03-16T03:21:03.566Z,100019.35
2023-03-16T03:23:32.067Z,100015.32
2023-03-16T03:26:03.102Z,100012.34
2023-03-16T03:28:34.342Z,100005.92
2023-03-16T03:31:02.896Z,100009.48
2023-03-16T03:33:33.789Z,100003.90
2023-03-16T03:36:04.042Z,99997.66
2023-03-16T03:38:36.047Z,99994.70
2023-03-16T03:41:07.199Z,100002.85
2023-03-16T03:43:36.639Z,99992.62
2023-03-16T03:46:05.719Z,99990.59
2023-03-16T03:48:35.257Z,99995.27
2023-03-16T03:51:05.687Z,99994.98
2023-03-16T03:53:40.120Z,100009.02
2023-03-16T03:57:07.083Z,100013.94
2023-03-16T03:59:40.943Z,100023.36
2023-03-16T04:02:18.353Z,100022.95
2023-03-16T04:04:55.604Z,100018.71
2023-03-16T04:07:24.145Z,100018.88
2023-03-16T04:09:54.964Z,100023.16
2023-03-16T04:12:36.644Z,100022.79
2023-03-16T04:15:06.219Z,100030.89
2023-03-16T04:17:39.717Z,100028.56
2023-03-16T04:20:14.768Z,100030.92
2023-03-16T04:22:44.197Z,100026.83
2023-03-16T04:25:16.363Z,100030.29
2023-03-16T04:27:46.949Z,100029.87
2023-03-16T04:30:16.570Z,100029.23
2023-03-16T04:32:48.334Z,100026.92
2023-03-16T04:35:19.941Z,100029.45
2023-03-16T04:37:51.218Z,100031.77
2023-03-16T04:40:21.272Z,100034.55
2023-03-16T04:42:55.006Z,100038.88
2023-03-16T04:45:24.699Z,100041.15
2023-03-16T04:47:53.802Z,100040.45
2023-03-16T04:50:23.011Z,100039.81
2023-03-16T04:52:53.780Z,100045.70
2023-03-16T04:55:23.151Z,100051.05
2023-03-16T04:57:52.770Z,100053.14
2023-03-16T05:00:23.677Z,100054.90
2023-03-16T05:03:04.486Z,100048.04
2023-03-16T05:05:34.383Z,100048.45
2023-03-16T05:08:06.208Z,100047.15
2023-03-16T05:10:35.426Z,100059.00
2023-03-16T05:13:04.624Z,100052.02
2023-03-16T05:15:33.742Z,100060.39
2023-03-16T05:18:22.729Z,100062.27
2023-03-16T05:20:56.266Z,100065.10
2023-03-16T05:23:25.841Z,100065.38
2023-03-16T05:25:59.989Z,100071.38
2023-03-16T05:28:29.330Z,100078.17
2023-03-16T05:31:06.962Z,100082.13
2023-03-16T05:33:41.946Z,100087.13
2023-03-16T05:36:13.312Z,100085.21
2023-03-16T05:38:42.906Z,100086.52
2023-03-16T05:41:12.683Z,100087.38
2023-03-16T05:44:04.827Z,100086.70
2023-03-16T05:46:55.104Z,100092.47
2023-03-16T05:49:23.971Z,100103.74
2023-03-16T05:51:52.541Z,100107.54
2023-03-16T05:54:21.527Z,100110.48
2023-03-16T05:56:50.012Z,100114.59
2023-03-16T05:59:18.476Z,100123.61
2023-03-16T06:01:50.831Z,100125.31
2023-03-16T06:04:22.017Z,100128.30
2023-03-16T06:06:50.614Z,100126.91
2023-03-16T06:09:22.817Z,100140.82
2023-03-16T06:11:51.323Z,100143.28
2023-03-16T06:14:20.018Z,100144.77
2023-03-16T06:16:48.839Z,100148.11
2023-03-16T06:19:17.605Z,100150.10
2023-03-16T06:21:46.679Z,100152.60
2023-03-16T06:24:15.335Z,100153.65
2023-03-16T06:26:43.831Z,100157.88
2023-03-16T06:29:13.437Z,100159.17
2023-03-16T06:31:42.527Z,100164.88
2023-03-16T06:34:11.972Z,100162.95
2023-03-16T06:36:40.785Z,100174.91
2023-03-16T06:39:12.226Z,100180.83
2023-03-16T06:41:47.479Z,100177.11
2023-03-16T06:44:17.215Z,100178.24
2023-03-16T06:47:10.664Z,100175.69
2023-03-16T06:49:39.947Z,100185.66
2023-03-16T06:52:15.091Z,100185.09
2023-03-16T06:54:43.732Z,100191.96
2023-03-16T06:57:12.643Z,100189.43
2023-03-16T06:59:41.472Z,100193.35
2023-03-16T07:02:15.386Z,100193.17
2023-03-16T07:04:44.951Z,100195.52
2023-03-16T07:07:27.787Z,100203.19
2023-03-16T07:09:56.962Z,100210.48
2023-03-16T07:12:26.112Z,100211.68
2023-03-16T07:14:55.247Z,100217.86
2023-03-16T07:17:27.410Z,100212.07
2023-03-16T07:19:56.913Z,100214.29
2023-03-16T07:22:26.643Z,100218.88
2023-03-16T07:24:57.585Z,100227.30
2023-03-16T07:27:29.446Z,100221.36
2023-03-16T07:30:00.586Z,100222.23
2023-03-16T07:32:29.760Z,100221.30
2023-03-16T07:34:59.603Z,100220.89
2023-03-16T07:37:29.232Z,100228.84
2023-03-16T07:40:00.757Z,100230.52
2023-03-16T07:42:30.239Z,100227.31
2023-03-16T07:45:09.397Z,100232.63
2023-03-16T07:47:38.635Z,100236.96
2023-03-16T07:50:20.963Z,100237.13
2023-03-16T07:52:50.763Z,100237.84
2023-03-16T07:55:20.223Z,100241.74
2023-03-16T07:57:55.657Z,100249.08
2023-03-16T08:00:34.351Z,100250.52
2023-03-16T08:03:04.316Z,100252.66
2023-03-16T08:05:33.602Z,100255.77
2023-03-16T08:08:12.098Z,100257.37
2023-03-16T08:10:41.781Z,100263.73
2023-03-16T08:13:18.909Z,100265.80
2023-03-16T08:15:58.767Z,100263.06
2023-03-16T08:18:37.597Z,100264.33
2023-03-16T08:21:07.279Z,100266.14
2023-03-16T08:23:36.294Z,100270.16
2023-03-16T08:26:09.699Z,100268.89
2023-03-16T08:28:39.754Z,100270.91
2023-03-16T08:31:14.101Z,100277.33
2023-03-16T08:34:27.926Z,100280.39
2023-03-16T08:36:59.994Z,100279.55
2023-03-16T08:39:30.397Z,100284.14
2023-03-16T08:42:03.113Z,100286.58
2023-03-16T08:44:45.522Z,100288.26
2023-03-16T08:47:15.186Z,100288.60
2023-03-16T08:49:47.246Z,100286.70
2023-03-16T08:52:19.458Z,100294.55
2023-03-16T08:55:02.043Z,100292.74
2023-03-16T08:57:34.017Z,100296.20
2023-03-16T09:00:12.815Z,100299.52
2023-03-16T09:02:42.913Z,100298.28
2023-03-16T09:05:15.579Z,100301.72
2023-03-16T09:07:47.666Z,100301.00
2023-03-16T09:10:19.142Z,100305.34
2023-03-16T09:12:52.254Z,100309.06
2023-03-16T09:15:21.977Z,100307.77
2023-03-16T09:17:54.557Z,100301.82
2023-03-16T09:20:29.496Z,100308.77
2023-03-16T09:22:59.069Z,100308.20
2023-03-16T09:25:33.481Z,100313.21
2023-03-16T09:28:06.082Z,100314.84
2023-03-16T09:30:36.800Z,100325.38
2023-03-16T09:33:06.408Z,100321.63
2023-03-16T09:35:36.416Z,100319.60
2023-03-16T09:38:07.393Z,100323.77
2023-03-16T09:40:38.397Z,100325.55
2023-03-16T09:43:57.518Z,100332.51
2023-03-16T09:46:33.956Z,100330.85
2023-03-16T09:49:05.183Z,100331.52
2023-03-16T09:52:09.022Z,100343.47
2023-03-16T09:55:08.126Z,100343.98
2023-03-16T09:57:43.018Z,100345.17
2023-03-16T10:00:18.704Z,100340.80
2023-03-16T10:03:25.969Z,100345.56
2023-03-16T10:06:16.967Z,100344.24
2023-03-16T10:09:29.117Z,100348.63
2023-03-16T10:12:00.807Z,100346.91
2023-03-16T10:14:44.732Z,100352.85
2023-03-16T10:17:46.261Z,100355.64
2023-03-16T10:20:22.626Z,100363.68
2023-03-16T10:22:52.936Z,100361.43
2023-03-16T10:25:24.342Z,100368.33
2023-03-16T10:27:57.474Z,100367.65
2023-03-16T10:30:32.561Z,100366.08
2023-03-16T10:33:13.453Z,100369.45
2023-03-16T10:35:52.102Z,100369.36
2023-03-16T10:38:47.052Z,100368.07
2023-03-16T10:41:20.646Z,100363.06
2023-03-16T10:44:12.117Z,100367.02
2023-03-16T10:46:49.071Z,100373.20
2023-03-16T10:49:27.454Z,100374.23
2023-03-16T10:52:00.484Z,100366.90
2023-03-16T10:54:39.325Z,100365.52
2023-03-16T10:57:16.898Z,100365.94
2023-03-16T10:59:53.007Z,100364.48
2023-03-16T11:02:34.859Z,100362.74
2023-03-16T11:05:19.636Z,100360.33
2023-03-16T11:08:10.090Z,100358.94
2023-03-16T11:10:56.191Z,100357.64
2023-03-16T11:13:34.566Z,100361.07
2023-03-16T11:16:28.340Z,100361.48
2023-03-16T11:19:13.193Z,100360.20
2023-03-16T11:21:55.206Z,100357.17
2023-03-16T11:24:42.328Z,100355.96
2023-03-16T11:27:34.942Z,100356.09
2023-03-16T11:30:27.665Z,100359.91
2023-03-16T11:33:00.813Z,100358.75
2023-03-16T11:35:38.392Z,100357.46
2023-03-16T11:38:19.262Z,100361.72
2023-03-16T11:41:03.719Z,100361.55
2023-03-16T11:43:55.587Z,100366.31
2023-03-16T11:46:27.926Z,100366.39
2023-03-16T11:49:39.528Z,100367.52
2023-03-16T11:52:32.451Z,100368.52
2023-03-16T11:55:27.381Z,100375.16
2023-03-16T11:58:47.561Z,100376.46
2023-03-16T12:01:47.754Z,100373.84
2023-03-16T12:04:48.950Z,100371.98
2023-03-16T12:07:31.766Z,100373.83
2023-03-16T12:10:20.368Z,100378.45
2023-03-16T12:13:20.122Z,100378.66
2023-03-16T12:16:00.095Z,100381.20
2023-03-16T12:19:10.234Z,100375.88
2023-03-16T12:21:48.731Z,100378.20
2023-03-16T12:24:26.198Z,100383.05
2023-03-16T12:26:58.651Z,100382.39
2023-03-16T12:30:06.544Z,100384.79
2023-03-16T12:32:50.485Z,100388.30
2023-03-16T12:35:42.409Z,100384.59
2023-03-16T12:38:34.870Z,100383.20
2023-03-16T12:41:19.972Z,100388.41
2023-03-16T12:44:15.863Z,100387.65
2023-03-16T12:47:17.304Z,100384.39
2023-03-16T12:49:47.059Z,100392.20
2023-03-16T12:52:18.275Z,100392.81
2023-03-16T12:55:07.290Z,100390.19
2023-03-16T12:57:40.823Z,100392.86
2023-03-16T13:00:13.098Z,100385.62
2023-03-16T13:02:51.887Z,100392.84
2023-03-16T13:05:37.212Z,100399.86
2023-03-16T13:08:16.040Z,100397.26
2023-03-16T13:11:10.789Z,100397.02
2023-03-16T13:13:53.508Z,100406.66
2023-03-16T13:16:31.485Z,100410.47
2023-03-16T13:19:01.100Z,100414.43
2023-03-16T13:21:40.411Z,100414.96
2023-03-16T13:24:18.995Z,100418.55
2023-03-16T13:26:53.753Z,100426.80
2023-03-16T13:29:28.263Z,100432.03
2023-03-16T13:32:07.564Z,100438.94
2023-03-16T13:34:51.248Z,100442.69
2023-03-16T13:37:23.771Z,100440.83
2023-03-16T13:39:56.128Z,100444.94
2023-03-16T13:42:32.630Z,100445.55
2023-03-16T13:45:20.067Z,100454.42
2023-03-16T13:47:51.332Z,100456.83
2023-03-16T13:50:33.632Z,100458.53
2023-03-16T13:53:11.076Z,100465.59
2023-03-16T13:55:44.542Z,100474.39
2023-03-16T13:58:38.058Z,100473.55
2023-03-16T14:01:37.896Z,100479.36
2023-03-16T14:04:14.036Z,100477.77
2023-03-16T14:06:55.118Z,100476.98
2023-03-16T14:09:30.876Z,100481.96
2023-03-16T14:11:59.675Z,100482.97
2023-03-16T14:14:39.434Z,100485.52
2023-03-16T14:17:19.525Z,100489.08
2023-03-16T14:19:57.291Z,100492.72
2023-03-16T14:22:38.183Z,100494.91
2023-03-16T14:25:07.670Z,100493.42
2023-03-16T14:27:47.013Z,100505.22
2023-03-16T14:30:28.002Z,100500.86
2023-03-16T14:33:06.893Z,100504.33
2023-03-16T14:35:45.066Z,100513.10
2023-03-16T14:38:32.213Z,100513.46
2023-03-16T14:41:12.535Z,100520.51
2023-03-16T14:44:05.820Z,100525.58
2023-03-16T14:46:41.355Z,100529.27
2023-03-16T14:49:22.224Z,100534.10
2023-03-16T14:51:54.020Z,100539.27
2023-03-16T14:54:22.839Z,100543.39
2023-03-16T14:57:00.685Z,100547.52
2023-03-16T14:59:29.566Z,100539.31
2023-03-16T15:02:00.109Z,100546.07
2023-03-16T15:04:34.342Z,100549.58
2023-03-16T15:07:07.165Z,100546.68
2023-03-16T15:09:39.431Z,100549.33
2023-03-16T15:12:19.940Z,100554.98
2023-03-16T15:15:07.187Z,100557.25
2023-03-16T15:17:35.642Z,100562.12
2023-03-16T15:20:05.514Z,100565.44
2023-03-16T15:22:39.242Z,100569.66
2023-03-16T15:25:37.174Z,100573.92
2023-03-16T15:28:21.868Z,100573.72
2023-03-16T15:31:03.225Z,100580.91
2023-03-16T15:33:32.060Z,100582.19
2023-03-16T15:36:10.413Z,100585.55
2023-03-16T15:38:40.899Z,100587.02
2023-03-16T15:41:11.965Z,100590.33
2023-03-16T15:43:40.436Z,100594.80
2023-03-16T15:46:10.536Z,100601.16
2023-03-16T15:48:39.679Z,100606.16
2023-03-16T15:51:21.769Z,100609.79
2023-03-16T15:53:59.651Z,100613.67
2023-03-16T15:56:47.284Z,100620.48
2023-03-16T15:59:23.614Z,100621.63
2023-03-16T16:01:52.934Z,100625.77
2023-03-16T16:04:25.142Z,100632.69
2023-03-16T16:06:58.039Z,100642.86
2023-03-16T16:09:26.509Z,100644.91
2023-03-16T16:11:55.034Z,100647.14
2023-03-16T16:14:26.766Z,100650.16
2023-03-16T16:16:55.725Z,100657.23
2023-03-16T16:19:24.266Z,100659.11
2023-03-16T16:21:52.970Z,100662.04
2023-03-16T16:24:22.649Z,100665.20
2023-03-16T16:26:54.674Z,100674.03
2023-03-16T16:29:28.108Z,100681.14
2023-03-16T16:31:56.959Z,100691.93
2023-03-16T16:34:27.235Z,100697.80
2023-03-16T16:36:57.610Z,100704.95
2023-03-16T16:39:26.864Z,100707.73
2023-03-16T16:41:56.839Z,100709.45
2023-03-16T16:44:34.006Z,100715.85
2023-03-16T16:47:03.931Z,100720.85
2023-03-16T16:49:35.218Z,100720.30
2023-03-16T16:52:04.026Z,100728.84
2023-03-16T16:54:32.784Z,100728.77
2023-03-16T16:57:02.036Z,100733.25
2023-03-16T16:59:37.671Z,100732.04
2023-03-16T17:02:41.934Z,100734.80
2023-03-16T17:05:29.333Z,100741.79
2023-03-16T17:08:03.593Z,100742.48
2023-03-16T17:10:33.433Z,100749.36
2023-03-16T17:13:02.068Z,100752.67
2023-03-16T17:15:33.113Z,100756.67
2023-03-16T17:18:12.853Z,100763.17
2023-03-16T17:20:41.909Z,100763.64
2023-03-16T17:23:35.142Z,100773.70
2023-03-16T17:26:18.051Z,100776.17
2023-03-16T17:29:14.237Z,100777.05
2023-03-16T17:31:43.081Z,100778.63
2023-03-16T17:34:30.396Z,100783.73
2023-03-16T17:36:59.020Z,100784.94
2023-03-16T17:39:30.932Z,100783.70
2023-03-16T17:42:10.417Z,100786.41
2023-03-16T17:44:53.400Z,100786.71
2023-03-16T17:47:25.382Z,100788.15
2023-03-16T17:49:55.362Z,100789.32
2023-03-16T17:52:27.276Z,100788.67
2023-03-16T17:54:56.179Z,100790.42
2023-03-16T17:57:33.355Z,100796.73
2023-03-16T18:00:08.999Z,100794.88
2023-03-16T18:03:04.576Z,100796.07
2023-03-16T18:05:36.398Z,100801.99
2023-03-16T18:08:22.016Z,100804.19
2023-03-16T18:10:55.095Z,100808.06
2023-03-16T18:13:31.771Z,100808.42
2023-03-16T18:16:03.140Z,100812.61
2023-03-16T18:18:37.053Z,100817.38
2023-03-16T18:21:06.019Z,100817.70
2023-03-16T18:23:36.977Z,100819.21
2023-03-16T18:26:07.042Z,100822.81
2023-03-16T18:28:35.755Z,100825.11
2023-03-16T18:31:05.728Z,100825.11
2023-03-16T18:33:41.664Z,100831.54
2023-03-16T18:36:19.128Z,100829.98
2023-03-16T18:38:50.747Z,100832.04
2023-03-16T18:41:37.652Z,100832.73
2023-03-16T18:44:26.726Z,100833.02
2023-03-16T18:47:03.148Z,100834.59
2023-03-16T18:49:35.736Z,100835.63
2023-03-16T18:52:11.631Z,100842.23
2023-03-16T18:54:40.954Z,100842.28
2023-03-16T18:57:22.846Z,100845.46
2023-03-16T18:59:51.806Z,100850.48
2023-03-16T19:02:39.808Z,100849.45
2023-03-16T19:05:18.767Z,100852.54
2023-03-16T19:07:51.631Z,100854.11
2023-03-16T19:10:31.905Z,100857.55
2023-03-16T19:13:00.601Z,100856.75
2023-03-16T19:15:32.825Z,100860.77
2023-03-16T19:18:01.359Z,100865.29
2023-03-16T19:20:32.712Z,100867.89
2023-03-16T19:23:01.174Z,100871.70
2023-03-16T19:25:36.129Z,100879.01
2023-03-16T19:28:06.859Z,100879.79
2023-03-16T19:30:36.283Z,100885.55
2023-03-16T19:33:18.452Z,100888.65
2023-03-16T19:35:51.851Z,100895.11
2023-03-16T19:38:25.832Z,100895.81
2023-03-16T19:41:00.684Z,100897.51
2023-03-16T19:43:29.162Z,100896.31
2023-03-16T19:45:57.942Z,100896.85
2023-03-16T19:48:33.514Z,100900.19
2023-03-16T19:51:04.500Z,100894.30
2023-03-16T19:53:32.973Z,100901.78
2023-03-16T19:56:01.444Z,100901.23
2023-03-16T19:58:39.489Z,100904.70
2023-03-16T20:01:16.705Z,100909.56
2023-03-16T20:03:47.889Z,100914.32
2023-03-16T20:06:19.819Z,100915.33
2023-03-16T20:08:49.510Z,100919.89
2023-03-16T20:11:24.224Z,100916.09
2023-03-16T20:13:52.817Z,100916.36
2023-03-16T20:16:33.895Z,100920.54
2023-03-16T20:19:13.564Z,100918.61
2023-03-16T20:21:43.019Z,100927.77
2023-03-16T20:24:21.724Z,100929.13
2023-03-16T20:26:51.625Z,100930.56
2023-03-16T20:29:38.872Z,100932.95
2023-03-16T20:32:25.477Z,100934.21
2023-03-16T20:34:54.241Z,100936.67
2023-03-16T20:37:26.524Z,100938.37
2023-03-16T20:39:58.351Z,100942.38
2023-03-16T20:42:32.388Z,100944.70
2023-03-16T20:45:01.789Z,100942.23
2023-03-16T20:47:30.240Z,100945.25
2023-03-16T20:49:59.148Z,100948.95
2023-03-16T20:52:30.836Z,100948.86
2023-03-16T20:54:59.804Z,100952.83
2023-03-16T20:57:29.879Z,100954.30
2023-03-16T20:59:58.345Z,100953.20
2023-03-16T21:02:32.099Z,100956.36
2023-03-16T21:05:04.100Z,100957.43
2023-03-16T21:07:32.725Z,100959.13
2023-03-16T21:10:01.244Z,100960.91
2023-03-16T21:12:34.407Z,100961.38
2023-03-16T21:15:16.634Z,100959.68
2023-03-16T21:17:45.563Z,100963.14
2023-03-16T21:20:21.736Z,100963.67
2023-03-16T21:22:50.415Z,100964.14
2023-03-16T21:25:45.647Z,100960.80
2023-03-16T21:28:15.173Z,100962.60
2023-03-16T21:30:47.889Z,100961.73
2023-03-16T21:33:32.005Z,100964.75
2023-03-16T21:36:01.712Z,100965.84
2023-03-16T21:38:32.272Z,100967.34
2023-03-16T21:41:01.137Z,100969.42
2023-03-16T21:43:29.773Z,100972.95
2023-03-16T21:45:59.686Z,100973.70
2023-03-16T21:48:36.450Z,100972.20
2023-03-16T21:51:13.855Z,100973.75
2023-03-16T21:53:42.629Z,100980.90
2023-03-16T21:56:17.838Z,100980.35
2023-03-16T21:58:47.604Z,100981.50
2023-03-16T22:01:30.123Z,100985.92
2023-03-16T22:04:06.626Z,100981.25
2023-03-16T22:06:35.350Z,100984.52
2023-03-16T22:09:04.301Z,100982.61
2023-03-16T22:11:32.944Z,100980.62
2023-03-16T22:14:01.605Z,100984.33
2023-03-16T22:16:36.269Z,100981.80
2023-03-16T22:19:05.075Z,100987.41
2023-03-16T22:21:42.900Z,100988.54
2023-03-16T22:24:22.416Z,100989.45
2023-03-16T22:26:52.123Z,100992.05
2023-03-16T22:29:28.501Z,100996.63
2023-03-16T22:32:08.653Z,100998.63
2023-03-16T22:34:50.011Z,101000.77
2023-03-16T22:37:23.208Z,101006.23
2023-03-16T22:39:53.051Z,101003.70
2023-03-16T22:42:26.369Z,101003.34
2023-03-16T22:44:56.060Z,101009.92
2023-03-16T22:47:28.867Z,101009.96
2023-03-16T22:49:57.271Z,101009.83
2023-03-16T22:52:33.836Z,101015.05
2023-03-16T22:55:04.541Z,101012.20
2023-03-16T22:57:33.248Z,101007.55
2023-03-16T23:00:11.425Z,101009.67
2023-03-16T23:02:40.604Z,101008.35
2023-03-16T23:05:21.083Z,101013.12
2023-03-16T23:07:49.540Z,101014.65
2023-03-16T23:10:23.049Z,101015.20
2023-03-16T23:12:54.123Z,101013.94
2023-03-16T23:15:30.655Z,101016.52
2023-03-16T23:17:59.282Z,101014.01
2023-03-16T23:20:30.661Z,101014.30
2023-03-16T23:22:59.892Z,101015.11
2023-03-16T23:25:28.482Z,101018.11
2023-03-16T23:27:58.931Z,101017.58
2023-03-16T23:30:28.066Z,101017.73
2023-03-16T23:32:56.875Z,101020.42
2023-03-16T23:35:29.232Z,101023.50
2023-03-16T23:37:57.891Z,101024.15
2023-03-16T23:40:29.232Z,101028.79
2023-03-16T23:43:00.969Z,101028.55
2023-03-16T23:45:45.270Z,101026.92
2023-03-16T23:48:21.518Z,101030.25
2023-03-16T23:50:54.492Z,101035.27
2023-03-16T23:53:24.186Z,101032.98
2023-03-16T23:55:52.855Z,101039.02
2023-03-16T23:58:21.310Z,101036.51
